Time;durP1;ratioP1;P1;durP2;ratioP2;P2;SDS_P1;SDS_P2;PMS_P1;PMS_P2;Temp;Humidity;BMP_temperature;BMP_pressure;BME280_temperature;BME280_humidity;BME280_pressure;Samples;Min_cycle;Max_cycle;Signal;HPM_P1;HPM_P2
2022/10/28 00:02:47;;;;;;;8.20;2.50;;;;;;;18.81;43.88;100778.59;10561539;28;20656;-81
2022/10/28 00:08:09;;;;;;;12.27;2.88;;;;;;;18.78;43.73;100770.78;10547982;28;20243;-81
2022/10/28 00:13:31;;;;;;;7.25;2.92;;;;;;;18.67;44.49;100767.72;10551615;28;20194;-81
2022/10/28 00:18:53;;;;;;;12.20;2.47;;;;;;;18.64;43.68;100768.50;10543637;27;20209;-81
2022/10/28 00:24:15;;;;;;;10.25;2.83;;;;;;;18.70;43.62;100760.44;10580069;27;20190;-81
2022/10/28 00:29:37;;;;;;;12.55;2.75;;;;;;;19.01;43.07;100754.47;10558498;27;20222;-81
2022/10/28 00:34:59;;;;;;;8.30;2.40;;;;;;;19.12;42.03;100751.78;10596454;27;20194;-81
2022/10/28 00:40:22;;;;;;;7.72;2.40;;;;;;;18.57;43.16;100754.09;10570580;28;20251;-81
2022/10/28 00:45:44;;;;;;;11.85;2.90;;;;;;;18.75;43.29;100757.25;10569458;28;20198;-81
2022/10/28 00:51:07;;;;;;;8.25;2.67;;;;;;;19.08;41.41;100744.38;10548987;28;20198;-81
2022/10/28 00:56:32;;;;;;;9.75;2.35;;;;;;;19.39;40.99;100741.19;10542505;28;20205;-81
2022/10/28 01:01:54;;;;;;;10.02;1.90;;;;;;;19.12;41.58;100730.97;10534168;28;20216;-81
2022/10/28 01:07:17;;;;;;;8.13;2.35;;;;;;;19.33;40.78;100731.28;10554982;28;20666;-81
2022/10/28 01:13:23;;;;;;;8.35;2.78;;;;;;;19.08;41.16;100722.34;10535053;28;20213;-81
2022/10/28 01:19:11;;;;;;;11.77;2.63;;;;;;;19.27;40.49;100712.81;10451102;28;20233;-81
2022/10/28 01:24:54;;;;;;;9.80;2.63;;;;;;;19.08;40.63;100715.78;10562416;28;20202;-81
2022/10/28 01:30:24;;;;;;;7.90;2.17;;;;;;;19.19;40.29;100702.50;10567163;27;20814;-80
2022/10/28 01:36:00;;;;;;;7.28;2.10;;;;;;;19.42;40.11;100703.22;10554641;28;20194;-81
2022/10/28 01:41:30;;;;;;;6.28;2.35;;;;;;;18.86;40.92;100697.47;10551693;27;20286;-81
2022/10/28 01:47:33;;;;;;;6.65;2.42;;;;;;;19.39;39.29;100706.88;10555352;28;20194;-81
2022/10/28 01:52:58;;;;;;;9.57;1.95;;;;;;;19.68;38.81;100716.66;10509508;27;20209;-81
2022/10/28 01:58:24;;;;;;;9.68;2.40;;;;;;;19.14;39.86;100722.81;10555891;27;20695;-80
2022/10/28 02:03:46;;;;;;;9.48;2.53;;;;;;;19.16;40.49;100703.25;10567117;28;20517;-81
2022/10/28 02:09:20;;;;;;;8.10;2.35;;;;;;;18.54;41.58;100712.03;10563784;28;20221;-80
2022/10/28 02:15:04;;;;;;;6.68;1.70;;;;;;;18.94;40.82;100691.50;10531127;28;20209;-80
2022/10/28 02:20:49;;;;;;;8.23;2.08;;;;;;;19.66;38.86;100682.72;10559891;28;20210;-80
2022/10/28 02:26:22;;;;;;;14.68;2.80;;;;;;;19.27;40.12;100687.91;10533127;28;20211;-80
2022/10/28 02:31:51;;;;;;;9.73;2.78;;;;;;;19.38;40.12;100683.19;10530483;28;20226;-80
2022/10/28 02:37:21;;;;;;;14.43;2.50;;;;;;;19.60;39.11;100689.19;10535005;28;20250;-80
2022/10/28 02:42:46;;;;;;;8.75;2.00;;;;;;;19.38;39.83;100694.63;10583105;28;20589;-80
2022/10/28 02:48:16;;;;;;;9.45;2.53;;;;;;;19.51;39.21;100692.34;10572428;28;20212;-80
2022/10/28 02:54:03;;;;;;;7.50;2.75;;;;;;;19.50;39.72;100696.41;10555049;28;20279;-80
2022/10/28 02:59:24;;;;;;;13.10;2.47;;;;;;;19.65;39.52;100681.09;10586970;28;20209;-81
2022/10/28 03:04:47;;;;;;;7.75;2.17;;;;;;;19.16;40.37;100686.09;10531724;28;20198;-81
2022/10/28 03:10:09;;;;;;;7.85;1.95;;;;;;;19.17;41.17;100682.03;10537036;28;20635;-81
2022/10/28 03:15:31;;;;;;;13.65;2.30;;;;;;;19.01;41.14;100668.75;10548708;28;20227;-81
2022/10/28 03:20:53;;;;;;;13.85;2.92;;;;;;;18.72;42.07;100662.97;10545513;28;20195;-81
2022/10/28 03:26:15;;;;;;;7.55;2.80;;;;;;;19.21;40.76;100668.63;10533532;28;20594;-81
2022/10/28 03:31:37;;;;;;;13.73;2.88;;;;;;;19.02;41.21;100664.69;10545163;28;20495;-81
2022/10/28 03:36:59;;;;;;;10.10;2.90;;;;;;;18.86;41.73;100654.63;10549688;28;20239;-82
2022/10/28 03:42:21;;;;;;;7.72;2.10;;;;;;;19.00;41.23;100660.59;10553026;28;20553;-81
2022/10/28 03:47:43;;;;;;;10.57;3.08;;;;;;;18.86;41.62;100660.34;10570322;28;20250;-81
2022/10/28 03:53:05;;;;;;;6.35;2.45;;;;;;;18.91;41.53;100655.13;10567873;28;20194;-81
2022/10/28 03:58:27;;;;;;;7.15;2.65;;;;;;;18.88;41.59;100652.19;10537809;28;20218;-81
2022/10/28 04:03:50;;;;;;;7.43;2.03;;;;;;;18.63;42.29;100654.66;10538706;28;20271;-81
2022/10/28 04:09:12;;;;;;;7.65;2.72;;;;;;;18.90;41.74;100644.91;10573061;28;20214;-81
2022/10/28 04:14:34;;;;;;;6.88;2.00;;;;;;;18.65;42.31;100646.53;10534975;28;20263;-81
2022/10/28 04:19:56;;;;;;;9.68;2.28;;;;;;;18.92;41.81;100642.47;10519767;28;20226;-81
2022/10/28 04:25:18;;;;;;;10.75;2.60;;;;;;;18.64;42.45;100636.31;10552749;28;20201;-81
2022/10/28 04:30:40;;;;;;;9.15;3.38;;;;;;;18.15;43.45;100637.13;10517589;28;20244;-81
2022/10/28 04:36:02;;;;;;;7.18;2.80;;;;;;;19.00;42.00;100644.25;10518451;28;20210;-81
2022/10/28 04:41:24;;;;;;;10.65;2.85;;;;;;;18.35;42.97;100645.66;10507899;28;20245;-82
2022/10/28 04:46:46;;;;;;;11.13;3.15;;;;;;;18.71;42.18;100647.88;10538160;28;20195;-81
2022/10/28 04:52:09;;;;;;;11.75;3.35;;;;;;;18.76;42.32;100647.53;10539830;28;20277;-81
2022/10/28 04:57:31;;;;;;;7.88;2.80;;;;;;;18.85;42.39;100636.69;10517675;28;20214;-80
2022/10/28 05:02:53;;;;;;;11.38;2.78;;;;;;;18.59;42.78;100646.06;10527852;28;20222;-81
2022/10/28 05:08:15;;;;;;;12.63;2.78;;;;;;;18.57;43.00;100651.31;10535940;28;20245;-81
2022/10/28 05:13:37;;;;;;;6.60;2.47;;;;;;;18.84;41.93;100652.16;10534277;28;20567;-82
2022/10/28 05:19:00;;;;;;;15.75;3.30;;;;;;;19.26;41.66;100665.47;10506434;28;20618;-82
2022/10/28 05:24:22;;;;;;;8.70;2.45;;;;;;;19.96;39.81;100665.53;10527744;28;20202;-82
2022/10/28 05:29:44;;;;;;;12.75;3.53;;;;;;;19.57;40.56;100670.78;10580607;27;20220;-82
2022/10/28 05:35:06;;;;;;;6.35;2.58;;;;;;;18.68;43.03;100662.91;10552966;28;20190;-81
2022/10/28 05:40:31;;;;;;;14.82;3.30;;;;;;;18.49;43.05;100663.00;10544470;27;20249;-81
2022/10/28 05:45:54;;;;;;;10.65;3.40;;;;;;;18.61;43.31;100672.19;10575554;27;20467;-81
2022/10/28 05:51:16;;;;;;;13.60;3.30;;;;;;;18.74;42.70;100674.84;10531079;28;20272;-81
2022/10/28 05:56:38;;;;;;;10.10;2.70;;;;;;;18.73;43.49;100658.91;10542007;28;20459;-82
2022/10/28 06:02:00;;;;;;;12.60;3.45;;;;;;;17.82;45.24;100668.28;10552245;28;20244;-80
2022/10/28 06:07:23;;;;;;;8.85;3.13;;;;;;;18.21;44.07;100669.03;10573745;28;20214;-82
2022/10/28 06:12:45;;;;;;;11.27;3.63;;;;;;;18.33;44.08;100672.53;10553546;28;20263;-81
2022/10/28 06:18:07;;;;;;;12.25;2.95;;;;;;;18.39;44.02;100675.06;10565236;28;20265;-81
2022/10/28 06:23:29;;;;;;;12.05;3.63;;;;;;;18.57;43.62;100676.19;10555613;28;20227;-80
2022/10/28 06:28:51;;;;;;;11.18;3.38;;;;;;;18.82;43.04;100688.03;10529298;28;20219;-80
2022/10/28 06:34:13;;;;;;;11.23;2.90;;;;;;;18.05;45.02;100679.72;10559294;28;20194;-80
2022/10/28 06:39:37;;;;;;;13.68;2.95;;;;;;;18.53;43.98;100681.00;10567935;28;20217;-80
2022/10/28 06:44:59;;;;;;;10.75;3.20;;;;;;;18.44;43.56;100684.13;10561997;28;20198;-80
2022/10/28 06:50:21;;;;;;;14.15;3.90;;;;;;;17.75;45.98;100690.94;10535934;28;20598;-80
2022/10/28 06:55:47;;;;;;;10.63;2.95;;;;;;;18.46;44.14;100687.44;10538432;28;20229;-80
2022/10/28 07:01:09;;;;;;;15.40;3.50;;;;;;;17.69;45.95;100687.56;10570672;28;20264;-80
2022/10/28 07:06:31;;;;;;;9.38;2.95;;;;;;;18.25;44.71;100687.00;10571532;28;20219;-80
2022/10/28 07:11:53;;;;;;;10.57;3.10;;;;;;;18.24;44.84;100703.28;10564483;28;20218;-80
2022/10/28 07:17:15;;;;;;;13.27;3.75;;;;;;;18.26;44.46;100711.47;10534847;27;20272;-80
2022/10/28 07:22:37;;;;;;;11.82;3.00;;;;;;;18.50;44.40;100716.00;10595588;27;20205;-80
2022/10/28 07:27:59;;;;;;;7.47;2.78;;;;;;;18.50;44.35;100710.31;10577427;28;20226;-80
2022/10/28 07:33:21;;;;;;;10.85;3.80;;;;;;;18.28;45.24;100721.34;10561699;28;20194;-80
2022/10/28 07:38:44;;;;;;;9.27;3.05;;;;;;;18.46;44.51;100712.28;10530233;28;20259;-80
2022/10/28 07:44:06;;;;;;;13.57;3.17;;;;;;;18.91;43.92;100714.28;10545737;28;20251;-80
2022/10/28 07:49:28;;;;;;;15.48;3.30;;;;;;;18.64;44.16;100717.09;10533091;28;20194;-80
2022/10/28 07:54:50;;;;;;;11.98;3.10;;;;;;;18.91;43.41;100726.53;10526442;28;20507;-80
2022/10/28 08:00:13;;;;;;;11.43;2.80;;;;;;;19.18;42.81;100718.81;10557219;28;20214;-80
2022/10/28 08:05:35;;;;;;;11.52;3.00;;;;;;;19.37;42.83;100720.72;10550708;28;20206;-80
2022/10/28 08:10:57;;;;;;;7.35;2.85;;;;;;;19.33;42.57;100719.84;10556129;28;20232;-80
2022/10/28 08:16:19;;;;;;;14.07;3.10;;;;;;;19.28;43.08;100717.31;10546210;28;20216;-81
2022/10/28 08:21:41;;;;;;;7.85;3.28;;;;;;;18.95;43.51;100721.72;10575036;28;20545;-81
2022/10/28 08:27:03;;;;;;;10.65;3.15;;;;;;;19.17;42.81;100722.88;10557998;28;20194;-80
2022/10/28 08:32:25;;;;;;;12.50;2.90;;;;;;;19.23;43.09;100715.63;10567398;28;20197;-80
2022/10/28 08:37:51;;;;;;;8.80;2.95;;;;;;;19.37;42.93;100726.44;10541733;28;20240;-80
2022/10/28 08:43:35;;;;;;;11.20;3.40;;;;;;;19.56;42.47;100717.75;10577378;28;20198;-80
2022/10/28 08:49:01;;;;;;;12.18;3.33;;;;;;;19.12;43.08;100719.53;10582017;28;20213;-80
2022/10/28 08:54:30;;;;;;;9.48;2.75;;;;;;;19.63;42.24;100715.00;10531756;28;20198;-80
2022/10/28 08:59:52;;;;;;;10.48;2.97;;;;;;;19.46;42.78;100712.69;10524751;28;20276;-80
2022/10/28 09:05:25;;;;;;;9.90;3.58;;;;;;;19.85;41.46;100700.94;10527989;28;20194;-80
2022/10/28 09:10:59;;;;;;;16.33;3.20;;;;;;;20.08;41.04;100698.75;10553942;28;20262;-80
2022/10/28 09:16:50;;;;;;;10.60;2.88;;;;;;;20.43;40.83;100702.00;10534400;28;20506;-80
2022/10/28 09:22:36;;;;;;;10.18;3.08;;;;;;;20.69;40.00;100705.94;10550671;28;20209;-80
2022/10/28 09:28:05;;;;;;;12.45;2.88;;;;;;;20.69;39.87;100694.47;10553778;28;20717;-80
2022/10/28 09:33:46;;;;;;;11.13;2.63;;;;;;;20.48;39.84;100702.88;10551804;28;20224;-80
2022/10/28 09:39:18;;;;;;;15.32;3.78;;;;;;;21.36;38.80;100694.13;10551040;28;20214;-80
2022/10/28 09:44:44;;;;;;;12.23;3.08;;;;;;;20.86;39.26;100688.09;10541162;28;20251;-81
2022/10/28 09:50:14;;;;;;;13.52;3.38;;;;;;;21.57;38.10;100687.72;10566306;27;20198;-80
2022/10/28 09:55:36;;;;;;;15.02;2.92;;;;;;;21.17;38.90;100691.56;10557403;28;20202;-80
2022/10/28 10:00:59;;;;;;;14.48;3.78;;;;;;;21.52;38.10;100688.09;10551267;28;20214;-81
2022/10/28 10:06:25;;;;;;;10.35;2.83;;;;;;;21.09;38.95;100685.78;10562471;28;20498;-81
2022/10/28 10:11:48;;;;;;;12.48;3.10;;;;;;;21.46;38.65;100687.69;10576389;27;20243;-81
2022/10/28 10:17:31;;;;;;;10.90;3.10;;;;;;;20.67;39.49;100691.19;10563937;28;20201;-81
2022/10/28 10:22:53;;;;;;;18.10;3.65;;;;;;;21.35;38.63;100686.75;10519520;28;20259;-81
2022/10/28 10:28:15;;;;;;;11.98;2.90;;;;;;;20.66;39.15;100698.97;10549118;28;20691;-81
2022/10/28 10:33:38;;;;;;;11.27;2.85;;;;;;;21.22;38.08;100694.88;10544399;28;20199;-81
2022/10/28 10:39:01;;;;;;;16.90;3.45;;;;;;;21.20;38.35;100705.13;10557851;28;20263;-81
2022/10/28 10:44:30;;;;;;;11.80;3.58;;;;;;;20.87;39.40;100709.78;10532170;28;20198;-82
2022/10/28 10:50:16;;;;;;;11.07;3.30;;;;;;;21.20;38.59;100690.78;10543306;28;20486;-82
2022/10/28 10:55:39;;;;;;;10.70;3.28;;;;;;;21.43;38.22;100688.47;10570700;28;20197;-81
2022/10/28 11:01:06;;;;;;;16.73;3.40;;;;;;;21.72;37.50;100693.13;10559352;28;20260;-82
2022/10/28 11:06:30;;;;;;;14.10;3.38;;;;;;;21.95;38.18;100678.44;10577006;28;20483;-81
2022/10/28 11:11:54;;;;;;;8.70;3.03;;;;;;;22.17;36.77;100682.19;10542626;28;20537;-80
2022/10/28 11:17:25;;;;;;;16.42;3.33;;;;;;;21.83;36.82;100662.41;10556321;28;20197;-81
2022/10/28 11:22:44;;;;;;;11.90;3.25;;;;;;;22.54;35.82;100656.84;10561075;28;20270;-81
2022/10/28 11:28:55;;;;;;;11.90;3.15;;;;;;;22.50;36.68;100661.75;10559652;28;20286;-81
2022/10/28 11:34:36;;;;;;;13.23;3.72;;;;;;;23.25;35.45;100645.25;10457676;28;20267;-82
2022/10/28 11:40:30;;;;;;;10.25;3.15;;;;;;;23.23;34.88;100644.03;10551674;28;20221;-81
2022/10/28 11:46:07;;;;;;;15.07;3.42;;;;;;;23.16;36.80;100641.97;10565940;28;20219;-81
2022/10/28 11:51:47;;;;;;;15.93;3.35;;;;;;;23.65;35.05;100631.56;10542032;28;20248;-82
2022/10/28 11:57:10;;;;;;;10.05;3.58;;;;;;;22.35;35.86;100624.81;10544364;28;20195;-82
2022/10/28 12:03:11;;;;;;;10.10;2.60;;;;;;;23.64;34.88;100627.06;10528054;28;20618;-83
2022/10/28 12:08:46;;;;;;;13.10;2.97;;;;;;;23.09;35.34;100616.13;10527611;28;20227;-82
2022/10/28 12:14:17;;;;;;;13.55;3.45;;;;;;;22.72;35.73;100615.78;10564159;28;20186;-81
2022/10/28 12:20:00;;;;;;;12.40;2.47;;;;;;;23.56;34.42;100608.13;10549729;28;20260;-81
2022/10/28 12:25:25;;;;;;;17.58;3.10;;;;;;;23.40;34.44;100607.81;10557181;28;20198;-81
2022/10/28 12:30:49;;;;;;;12.45;3.05;;;;;;;23.18;34.42;100612.81;10548562;28;20499;-81
2022/10/28 12:36:23;;;;;;;11.85;3.33;;;;;;;23.41;34.16;100606.59;10537980;28;20202;-80
2022/10/28 12:41:51;;;;;;;11.38;2.90;;;;;;;24.21;33.48;100592.13;10565850;28;20483;-81
2022/10/28 12:47:18;;;;;;;13.00;3.55;;;;;;;23.96;33.44;100593.13;10538948;28;20193;-81
2022/10/28 12:52:46;;;;;;;9.63;3.17;;;;;;;23.71;33.79;100586.72;10540746;28;20202;-80
2022/10/28 12:58:14;;;;;;;9.45;3.28;;;;;;;23.52;33.71;100582.28;10563745;28;20670;-81
2022/10/28 13:03:36;;;;;;;10.82;3.15;;;;;;;23.04;33.91;100573.41;10562337;28;20269;-82
2022/10/28 13:09:20;;;;;;;12.10;3.08;;;;;;;23.32;34.00;100575.38;10560151;28;20690;-82
2022/10/28 13:14:52;;;;;;;12.50;3.28;;;;;;;23.18;33.42;100579.13;10559818;28;20535;-81
2022/10/28 13:20:18;;;;;;;10.48;2.67;;;;;;;23.45;33.77;100579.41;10567495;28;20278;-81
2022/10/28 13:25:42;;;;;;;10.40;2.90;;;;;;;23.51;33.54;100577.75;10580349;28;20219;-81
2022/10/28 13:31:06;;;;;;;14.77;2.97;;;;;;;24.12;33.40;100577.38;10567133;28;20298;-81
2022/10/28 13:36:31;;;;;;;16.70;3.33;;;;;;;23.82;33.01;100573.06;10553281;28;20190;-81
2022/10/28 13:42:16;;;;;;;12.32;3.40;;;;;;;23.61;34.01;100587.56;10569006;28;20213;-82
2022/10/28 13:47:39;;;;;;;9.95;3.05;;;;;;;24.04;33.11;100591.03;10566880;28;20194;-80
2022/10/28 13:53:23;;;;;;;15.43;3.30;;;;;;;23.65;33.68;100610.59;10560350;28;20574;-81
2022/10/28 13:59:16;;;;;;;13.02;3.22;;;;;;;23.64;34.45;100615.53;10561973;28;20213;-82
2022/10/28 14:04:42;;;;;;;13.70;3.25;;;;;;;23.53;34.05;100620.50;10550036;28;20232;-73
2022/10/28 14:10:18;;;;;;;11.35;3.10;;;;;;;23.12;34.82;100612.44;10579752;28;20206;-80
2022/10/28 14:15:40;;;;;;;14.73;3.33;;;;;;;23.54;33.92;100610.63;10560380;28;20194;-79
2022/10/28 14:20:59;;;;;;;11.02;3.75;;;;;;;24.07;33.62;100618.16;10561704;28;20599;-78
2022/10/28 14:26:21;;;;;;;9.23;2.85;;;;;;;23.07;34.51;100609.94;10573460;28;20259;-77
2022/10/28 14:31:43;;;;;;;11.25;3.03;;;;;;;23.19;34.46;100623.91;10546036;28;20218;-78
2022/10/28 14:37:19;;;;;;;14.07;3.40;;;;;;;23.37;34.10;100628.78;10561878;28;20189;-77
2022/10/28 14:42:56;;;;;;;16.40;3.55;;;;;;;23.39;33.98;100632.06;10550126;28;20903;-77
2022/10/28 14:48:25;;;;;;;17.65;3.67;;;;;;;23.27;34.35;100653.47;10564413;28;20248;-77
2022/10/28 14:53:48;;;;;;;16.38;3.53;;;;;;;22.83;35.33;100657.63;10566196;28;20243;-77
2022/10/28 14:59:30;;;;;;;11.52;3.60;;;;;;;23.23;34.09;100658.41;10560320;28;20302;-78
2022/10/28 15:05:10;;;;;;;12.07;3.25;;;;;;;23.06;34.83;100660.06;10550761;28;20598;-80
2022/10/28 15:10:33;;;;;;;14.18;3.55;;;;;;;22.36;36.00;100678.16;10575941;28;20236;-82
2022/10/28 15:15:55;;;;;;;13.68;3.45;;;;;;;23.01;34.69;100683.50;10549488;28;20214;-81
2022/10/28 15:21:19;;;;;;;11.95;3.15;;;;;;;23.15;34.81;100674.06;10541795;28;20321;-79
2022/10/28 15:26:41;;;;;;;10.70;3.30;;;;;;;23.48;34.24;100672.72;10571752;27;20198;-82
2022/10/28 15:32:23;;;;;;;15.30;3.72;;;;;;;23.13;35.67;100682.28;10560222;28;20186;-82
2022/10/28 15:37:45;;;;;;;17.77;3.70;;;;;;;22.48;36.38;100709.34;10539023;28;20278;-79
2022/10/28 15:43:17;;;;;;;17.92;7.18;;;;;;;22.48;36.35;100704.41;10550480;28;20237;-82
2022/10/28 15:48:40;;;;;;;17.27;4.32;;;;;;;22.28;37.04;100717.50;10538036;28;20194;-81
2022/10/28 15:54:17;;;;;;;13.40;3.83;;;;;;;22.11;37.20;100724.03;10560507;28;20280;-84
2022/10/28 15:59:39;;;;;;;13.20;4.70;;;;;;;22.41;37.43;100732.28;10524150;28;20680;-82
2022/10/28 16:05:02;;;;;;;13.15;4.22;;;;;;;22.60;37.13;100745.50;10557498;28;20224;-80
2022/10/28 16:10:27;;;;;;;14.40;3.80;;;;;;;22.10;38.06;100756.84;10545718;28;20710;-86
2022/10/28 16:16:13;;;;;;;12.90;3.70;;;;;;;21.74;39.22;100753.78;10557151;28;20239;-83
2022/10/28 16:21:37;;;;;;;17.17;4.28;;;;;;;22.14;38.24;100749.03;10519969;28;20263;-81
2022/10/28 16:27:31;;;;;;;13.25;3.95;;;;;;;21.19;39.54;100769.41;10567931;28;20241;-82
2022/10/28 16:32:53;;;;;;;16.55;4.10;;;;;;;21.47;38.85;100776.16;10549661;28;20232;-82
2022/10/28 16:38:17;;;;;;;10.32;3.45;;;;;;;21.27;39.63;100785.44;10537330;28;20586;-82
2022/10/28 16:43:39;;;;;;;15.02;3.88;;;;;;;21.20;39.47;100802.59;10543004;28;20221;-82
2022/10/28 16:49:01;;;;;;;16.25;3.80;;;;;;;21.32;39.60;100802.28;10547506;28;20219;-82
2022/10/28 16:54:23;;;;;;;15.80;3.80;;;;;;;21.74;38.16;100808.28;10550398;28;20251;-80
2022/10/28 16:59:45;;;;;;;18.27;4.20;;;;;;;21.43;38.85;100806.06;10567829;28;20237;-82
2022/10/28 17:05:17;;;;;;;11.05;3.83;;;;;;;21.91;37.91;100811.66;10561580;28;20205;-80
2022/10/28 17:10:40;;;;;;;16.55;3.92;;;;;;;21.38;38.98;100812.97;10565000;28;20267;-81
2022/10/28 17:16:02;;;;;;;13.43;4.13;;;;;;;21.37;38.65;100819.06;10563701;28;20536;-80
2022/10/28 17:21:25;;;;;;;13.23;3.45;;;;;;;21.21;39.52;100818.56;10564640;28;20523;-81
2022/10/28 17:26:47;;;;;;;14.50;3.58;;;;;;;21.25;39.37;100816.53;10571316;28;20190;-80
2022/10/28 17:32:10;;;;;;;12.45;4.20;;;;;;;21.03;39.60;100824.13;10544937;28;20206;-79
2022/10/28 17:37:32;;;;;;;15.35;4.32;;;;;;;21.48;38.90;100828.59;10581546;28;20240;-80
2022/10/28 17:42:56;;;;;;;16.45;4.20;;;;;;;21.11;40.17;100843.84;10548688;28;20233;-81
2022/10/28 17:50:15;;;;;;;17.83;5.13;;;;;;;19.80;43.21;100855.75;10398990;28;20670;-78
2022/10/28 17:55:37;;;;;;;21.83;5.45;;;;;;;19.49;43.87;100859.75;10369894;28;20194;-79
2022/10/28 18:01:02;;;;;;;20.80;4.93;;;;;;;19.67;42.99;100855.97;10372249;28;20201;-79
2022/10/28 18:06:25;;;;;;;13.52;4.35;;;;;;;19.97;42.27;100846.59;10442910;27;20248;-79
2022/10/28 18:11:47;;;;;;;14.45;4.22;;;;;;;19.77;43.07;100857.38;10356676;28;20289;-79
2022/10/28 18:17:12;;;;;;;13.05;4.18;;;;;;;19.85;42.55;100855.41;10338099;28;20193;-82
2022/10/28 18:22:34;;;;;;;18.08;4.28;;;;;;;19.66;43.33;100860.03;10349867;28;20950;-79
2022/10/28 18:27:56;;;;;;;15.35;4.32;;;;;;;19.77;42.77;100865.13;10442268;27;20249;-80
2022/10/28 18:33:18;;;;;;;13.73;4.45;;;;;;;20.02;42.54;100854.84;10375871;28;20240;-78
2022/10/28 18:38:41;;;;;;;14.05;4.13;;;;;;;19.14;44.45;100871.41;10441960;28;20224;-79
2022/10/28 18:44:04;;;;;;;12.05;4.28;;;;;;;19.31;43.84;100876.59;10377423;28;20685;-79
2022/10/28 18:49:26;;;;;;;14.63;4.13;;;;;;;19.79;42.67;100885.56;10355513;28;20587;-79
2022/10/28 18:54:48;;;;;;;14.75;4.57;;;;;;;19.06;44.75;100893.31;10347366;28;20221;-81
2022/10/28 19:00:10;;;;;;;14.15;4.93;;;;;;;18.66;45.37;100906.00;10365990;28;20247;-79
2022/10/28 19:05:32;;;;;;;13.45;4.63;;;;;;;19.14;45.22;100902.84;10354074;28;20259;-79
2022/10/28 19:10:56;;;;;;;13.70;5.00;;;;;;;18.73;45.50;100905.31;10348604;28;20222;-80
2022/10/28 19:16:18;;;;;;;16.63;4.78;;;;;;;19.58;43.91;100909.75;10316840;28;20278;-79
2022/10/28 19:21:40;;;;;;;15.68;4.65;;;;;;;19.15;44.89;100927.34;10320548;28;20233;-79
2022/10/28 19:27:03;;;;;;;12.52;4.45;;;;;;;19.52;43.85;100927.63;10324780;28;20246;-78
2022/10/28 19:32:25;;;;;;;19.73;5.07;;;;;;;19.27;44.49;100927.16;10331637;28;20476;-79
2022/10/28 19:37:51;;;;;;;16.17;4.63;;;;;;;19.09;45.14;100931.75;10311000;28;20213;-79
2022/10/28 19:43:13;;;;;;;15.88;4.88;;;;;;;19.27;44.25;100930.00;10339958;28;20225;-80
2022/10/28 19:48:36;;;;;;;14.13;4.70;;;;;;;19.65;43.49;100932.75;10358706;28;20722;-79
2022/10/28 19:54:00;;;;;;;17.15;5.13;;;;;;;19.56;44.37;100940.78;10304093;28;20221;-79
2022/10/28 19:59:22;;;;;;;16.73;4.53;;;;;;;18.99;45.10;100944.63;10336243;28;20209;-80
2022/10/28 20:04:47;;;;;;;21.48;5.13;;;;;;;19.10;44.85;100961.97;10326960;28;20304;-79
2022/10/28 20:10:09;;;;;;;15.38;4.78;;;;;;;19.06;44.67;100973.31;10365936;28;20300;-78
2022/10/28 20:15:31;;;;;;;18.08;5.47;;;;;;;18.49;46.26;100971.28;10371749;28;20268;-79
2022/10/28 20:20:53;;;;;;;15.68;5.00;;;;;;;18.84;46.16;100965.50;10334038;28;20232;-78
2022/10/28 20:26:15;;;;;;;14.45;5.05;;;;;;;19.33;44.56;100977.09;10333450;28;20311;-79
2022/10/28 20:31:37;;;;;;;11.75;4.22;;;;;;;19.22;44.96;100984.66;10351329;28;20325;-79
2022/10/28 20:36:59;;;;;;;17.60;5.15;;;;;;;19.10;44.96;100981.97;10355211;28;20230;-79
2022/10/28 20:42:21;;;;;;;14.27;3.92;;;;;;;19.31;44.42;100990.94;10344344;28;20258;-79
2022/10/28 20:47:43;;;;;;;15.77;4.43;;;;;;;19.19;45.16;100996.81;10345014;28;20266;-79
2022/10/28 20:53:05;;;;;;;16.48;4.70;;;;;;;19.06;44.91;100999.03;10284801;28;20211;-79
2022/10/28 20:58:30;;;;;;;17.45;4.82;;;;;;;19.06;45.12;100986.78;10284433;28;20291;-79
2022/10/28 21:03:53;;;;;;;16.95;5.13;;;;;;;19.33;44.66;100999.97;10320793;28;20291;-79
2022/10/28 21:09:15;;;;;;;15.57;4.65;;;;;;;19.24;45.14;101010.81;10356265;28;20313;-80
2022/10/28 21:14:37;;;;;;;18.98;4.63;;;;;;;19.33;44.72;101009.38;10277503;28;20237;-80
2022/10/28 21:19:59;;;;;;;15.63;4.55;;;;;;;19.37;44.30;101009.44;10369111;28;20230;-80
2022/10/28 21:25:07;;;;;;;17.55;4.55;;;;;;;19.43;44.51;101021.38;10287713;28;20260;-80
2022/10/28 21:30:29;;;;;;;18.00;4.80;;;;;;;18.93;45.71;101029.78;10282418;28;20238;-80
2022/10/28 21:35:56;;;;;;;15.25;4.85;;;;;;;19.35;44.88;101026.97;10269627;28;20203;-80
2022/10/28 21:41:20;;;;;;;15.50;4.88;;;;;;;18.71;46.53;101027.66;10314641;28;20231;-80
2022/10/28 21:46:42;;;;;;;13.93;5.28;;;;;;;18.06;48.73;101038.75;10341127;28;20778;-80
2022/10/28 21:52:04;;;;;;;17.20;5.97;;;;;;;18.33;48.78;101051.25;10299968;28;20287;-80
2022/10/28 21:57:28;;;;;;;15.07;5.10;;;;;;;18.56;47.36;101039.97;10281710;28;20206;-80
2022/10/28 22:02:50;;;;;;;18.52;6.07;;;;;;;18.30;48.16;101040.59;10282829;28;20217;-80
2022/10/28 22:08:12;;;;;;;19.67;5.60;;;;;;;18.45;47.74;101038.91;10283921;28;20366;-80
2022/10/28 22:13:34;;;;;;;15.23;6.07;;;;;;;18.14;48.63;101052.00;10302648;28;20334;-80
2022/10/28 22:18:57;;;;;;;15.57;5.85;;;;;;;18.45;48.04;101056.03;10346037;28;20209;-80
2022/10/28 22:24:19;;;;;;;11.70;5.38;;;;;;;18.54;47.40;101048.06;10325052;28;20294;-80
2022/10/28 22:29:41;;;;;;;17.02;5.90;;;;;;;18.58;47.58;101046.13;10333933;28;20245;-80
2022/10/28 22:35:04;;;;;;;16.75;5.70;;;;;;;18.60;47.18;101043.72;10337254;28;20551;-80
2022/10/28 22:40:28;;;;;;;16.85;5.22;;;;;;;18.42;47.57;101054.72;10328022;28;20256;-80
2022/10/28 22:45:50;;;;;;;18.00;5.90;;;;;;;18.62;47.79;101055.59;10286628;28;20266;-80
2022/10/28 22:51:12;;;;;;;15.65;5.80;;;;;;;18.23;48.66;101055.47;10307890;28;20228;-80
2022/10/28 22:56:34;;;;;;;16.45;6.38;;;;;;;18.52;47.50;101056.16;10352875;28;20270;-80
2022/10/28 23:01:56;;;;;;;15.18;5.78;;;;;;;18.68;46.85;101054.09;10312046;28;20255;-80
2022/10/28 23:07:18;;;;;;;19.90;5.57;;;;;;;18.66;47.47;101045.91;10318250;28;20325;-80
2022/10/28 23:12:40;;;;;;;19.83;6.40;;;;;;;18.27;48.76;101047.81;10333426;28;20202;-80
2022/10/28 23:18:02;;;;;;;15.02;6.13;;;;;;;18.23;49.04;101051.78;10287149;28;20226;-80
2022/10/28 23:23:24;;;;;;;14.48;6.13;;;;;;;18.32;48.10;101052.47;10286580;28;20548;-80
2022/10/28 23:28:51;;;;;;;16.67;5.57;;;;;;;18.27;48.77;101049.84;10287215;28;20246;-80
2022/10/28 23:34:13;;;;;;;11.98;5.32;;;;;;;18.02;49.51;101056.97;10306766;28;20302;-80
2022/10/28 23:39:35;;;;;;;18.20;6.53;;;;;;;18.05;49.52;101059.94;10303017;28;20271;-80
2022/10/28 23:44:57;;;;;;;13.38;5.53;;;;;;;17.74;50.47;101068.47;10310626;28;20288;-80
2022/10/28 23:50:20;;;;;;;16.20;5.70;;;;;;;16.99;53.03;101079.78;10300968;28;20307;-79
2022/10/28 23:55:43;;;;;;;16.40;5.50;;;;;;;18.00;50.27;101080.16;10299593;28;20226;-79
